<?xml version="1.0" encoding="UTF-8" standalone="no" ?>
<gpx xmlns="http://www.topografix.com/GPX/1/1" xmlns:xsi="http://www.w3.org/2001/XMLSchema-instance" xsi:schemaLocation="http://www.topografix.com/GPX/1/1 http://www.topografix.com/GPX/1/1/gpx.xsd" version="1.1" creator="VisuGPX - https://www.visugpx.com">
  <metadata>
    <name>Balade rayssac du 17 octobre 2010</name>
    <desc><![CDATA[Description et photos ici: 
[url]http://tous-a-velo-et-a-pied.over-blog.com/article-reportage-balade-du-17-oct-2010-59098024.html[/url]]]></desc>
  </metadata>
  <trk>
    <name><![CDATA[balade-rayssac]]></name>
    <trkseg>
      <trkpt lat="43.91617" lon="2.12984">
        <ele>141.451</ele>
        <time>2012-04-06T16:17:44.000Z</time>
      </trkpt>
      <trkpt lat="43.91607" lon="2.12988">
        <ele>145.296</ele>
        <time>2012-04-06T16:17:52.000Z</time>
      </trkpt>
      <trkpt lat="43.91602" lon="2.12999">
        <ele>148.661</ele>
        <time>2012-04-06T16:17:55.000Z</time>
      </trkpt>
      <trkpt lat="43.91601" lon="2.13015">
        <ele>150.103</ele>
        <time>2012-04-06T16:17:58.000Z</time>
      </trkpt>
      <trkpt lat="43.91602" lon="2.1303">
        <ele>152.026</ele>
        <time>2012-04-06T16:18:01.000Z</time>
      </trkpt>
      <trkpt lat="43.91603" lon="2.13046">
        <ele>153.948</ele>
        <time>2012-04-06T16:18:04.000Z</time>
      </trkpt>
      <trkpt lat="43.91604" lon="2.13063">
        <ele>155.39</ele>
        <time>2012-04-06T16:18:07.000Z</time>
      </trkpt>
      <trkpt lat="43.91605" lon="2.13078">
        <ele>155.871</ele>
        <time>2012-04-06T16:18:10.000Z</time>
      </trkpt>
      <trkpt lat="43.91605" lon="2.13094">
        <ele>158.274</ele>
        <time>2012-04-06T16:18:13.000Z</time>
      </trkpt>
      <trkpt lat="43.91606" lon="2.13111">
        <ele>159.716</ele>
        <time>2012-04-06T16:18:16.000Z</time>
      </trkpt>
      <trkpt lat="43.91603" lon="2.13128">
        <ele>160.677</ele>
        <time>2012-04-06T16:18:19.000Z</time>
      </trkpt>
      <trkpt lat="43.91599" lon="2.13144">
        <ele>160.677</ele>
        <time>2012-04-06T16:18:22.000Z</time>
      </trkpt>
      <trkpt lat="43.91602" lon="2.13159">
        <ele>161.158</ele>
        <time>2012-04-06T16:18:25.000Z</time>
      </trkpt>
      <trkpt lat="43.91612" lon="2.13164">
        <ele>161.639</ele>
        <time>2012-04-06T16:18:28.000Z</time>
      </trkpt>
      <trkpt lat="43.91622" lon="2.13158">
        <ele>162.6</ele>
        <time>2012-04-06T16:18:31.000Z</time>
      </trkpt>
      <trkpt lat="43.91633" lon="2.1315">
        <ele>163.562</ele>
        <time>2012-04-06T16:18:34.000Z</time>
      </trkpt>
      <trkpt lat="43.91644" lon="2.13146">
        <ele>163.081</ele>
        <time>2012-04-06T16:18:37.000Z</time>
      </trkpt>
      <trkpt lat="43.91654" lon="2.13148">
        <ele>163.081</ele>
        <time>2012-04-06T16:18:41.000Z</time>
      </trkpt>
      <trkpt lat="43.91654" lon="2.13162">
        <ele>162.12</ele>
        <time>2012-04-06T16:18:46.000Z</time>
      </trkpt>
      <trkpt lat="43.91653" lon="2.13173">
        <ele>162.6</ele>
        <time>2012-04-06T16:18:49.000Z</time>
      </trkpt>
      <trkpt lat="43.91644" lon="2.13183">
        <ele>163.081</ele>
        <time>2012-04-06T16:18:53.000Z</time>
      </trkpt>
      <trkpt lat="43.9164" lon="2.13194">
        <ele>163.081</ele>
        <time>2012-04-06T16:18:58.000Z</time>
      </trkpt>
      <trkpt lat="43.91642" lon="2.13206">
        <ele>163.081</ele>
        <time>2012-04-06T16:19:02.000Z</time>
      </trkpt>
      <trkpt lat="43.91642" lon="2.1322">
        <ele>163.081</ele>
        <time>2012-04-06T16:19:05.000Z</time>
      </trkpt>
      <trkpt lat="43.91642" lon="2.13234">
        <ele>163.081</ele>
        <time>2012-04-06T16:19:08.000Z</time>
      </trkpt>
      <trkpt lat="43.91642" lon="2.13248">
        <ele>163.081</ele>
        <time>2012-04-06T16:19:11.000Z</time>
      </trkpt>
      <trkpt lat="43.91642" lon="2.13261">
        <ele>164.042</ele>
        <time>2012-04-06T16:19:14.000Z</time>
      </trkpt>
      <trkpt lat="43.91636" lon="2.13268">
        <ele>164.523</ele>
        <time>2012-04-06T16:19:17.000Z</time>
      </trkpt>
      <trkpt lat="43.91626" lon="2.13271">
        <ele>164.523</ele>
        <time>2012-04-06T16:19:20.000Z</time>
      </trkpt>
      <trkpt lat="43.91617" lon="2.13282">
        <ele>164.523</ele>
        <time>2012-04-06T16:19:24.000Z</time>
      </trkpt>
      <trkpt lat="43.91611" lon="2.13296">
        <ele>164.523</ele>
        <time>2012-04-06T16:19:28.000Z</time>
      </trkpt>
      <trkpt lat="43.91605" lon="2.13296">
        <ele>164.523</ele>
        <time>2012-04-06T16:19:30.000Z</time>
      </trkpt>
      <trkpt lat="43.91592" lon="2.13291">
        <ele>165.003</ele>
        <time>2012-04-06T16:19:34.000Z</time>
      </trkpt>
      <trkpt lat="43.91581" lon="2.13287">
        <ele>165.003</ele>
        <time>2012-04-06T16:19:37.000Z</time>
      </trkpt>
      <trkpt lat="43.91572" lon="2.13284">
        <ele>165.484</ele>
        <time>2012-04-06T16:19:40.000Z</time>
      </trkpt>
      <trkpt lat="43.91567" lon="2.13294">
        <ele>166.445</ele>
        <time>2012-04-06T16:19:46.000Z</time>
      </trkpt>
      <trkpt lat="43.91565" lon="2.13306">
        <ele>167.407</ele>
        <time>2012-04-06T16:19:50.000Z</time>
      </trkpt>
      <trkpt lat="43.91562" lon="2.13317">
        <ele>166.926</ele>
        <time>2012-04-06T16:19:53.000Z</time>
      </trkpt>
      <trkpt lat="43.91562" lon="2.13331">
        <ele>167.887</ele>
        <time>2012-04-06T16:19:59.000Z</time>
      </trkpt>
      <trkpt lat="43.9156" lon="2.13332">
        <ele>168.368</ele>
        <time>2012-04-06T16:21:00.000Z</time>
      </trkpt>
      <trkpt lat="43.91551" lon="2.13344">
        <ele>168.368</ele>
        <time>2012-04-06T16:21:03.000Z</time>
      </trkpt>
      <trkpt lat="43.91544" lon="2.13359">
        <ele>168.368</ele>
        <time>2012-04-06T16:21:06.000Z</time>
      </trkpt>
      <trkpt lat="43.91536" lon="2.13373">
        <ele>168.368</ele>
        <time>2012-04-06T16:21:09.000Z</time>
      </trkpt>
      <trkpt lat="43.91529" lon="2.1338">
        <ele>167.887</ele>
        <time>2012-04-06T16:21:14.000Z</time>
      </trkpt>
      <trkpt lat="43.91533" lon="2.13393">
        <ele>168.368</ele>
        <time>2012-04-06T16:21:18.000Z</time>
      </trkpt>
      <trkpt lat="43.91537" lon="2.134">
        <ele>168.849</ele>
        <time>2012-04-06T16:21:20.000Z</time>
      </trkpt>
      <trkpt lat="43.91547" lon="2.13416">
        <ele>169.329</ele>
        <time>2012-04-06T16:21:24.000Z</time>
      </trkpt>
      <trkpt lat="43.91552" lon="2.13423">
        <ele>169.329</ele>
        <time>2012-04-06T16:21:26.000Z</time>
      </trkpt>
      <trkpt lat="43.9156" lon="2.13437">
        <ele>168.368</ele>
        <time>2012-04-06T16:21:30.000Z</time>
      </trkpt>
      <trkpt lat="43.91566" lon="2.13448">
        <ele>167.887</ele>
        <time>2012-04-06T16:21:36.000Z</time>
      </trkpt>
      <trkpt lat="43.91573" lon="2.13458">
        <ele>168.368</ele>
        <time>2012-04-06T16:21:40.000Z</time>
      </trkpt>
      <trkpt lat="43.91579" lon="2.13469">
        <ele>168.368</ele>
        <time>2012-04-06T16:21:43.000Z</time>
      </trkpt>
      <trkpt lat="43.91586" lon="2.1348">
        <ele>167.887</ele>
        <time>2012-04-06T16:21:46.000Z</time>
      </trkpt>
      <trkpt lat="43.91594" lon="2.13493">
        <ele>168.368</ele>
        <time>2012-04-06T16:21:49.000Z</time>
      </trkpt>
      <trkpt lat="43.91601" lon="2.13506">
        <ele>167.887</ele>
        <time>2012-04-06T16:21:52.000Z</time>
      </trkpt>
      <trkpt lat="43.91608" lon="2.13517">
        <ele>168.368</ele>
        <time>2012-04-06T16:21:55.000Z</time>
      </trkpt>
      <trkpt lat="43.91613" lon="2.13529">
        <ele>168.849</ele>
        <time>2012-04-06T16:22:01.000Z</time>
      </trkpt>
      <trkpt lat="43.91625" lon="2.13541">
        <ele>168.368</ele>
        <time>2012-04-06T16:22:44.000Z</time>
      </trkpt>
      <trkpt lat="43.91632" lon="2.13554">
        <ele>168.368</ele>
        <time>2012-04-06T16:22:47.000Z</time>
      </trkpt>
      <trkpt lat="43.9164" lon="2.13567">
        <ele>168.849</ele>
        <time>2012-04-06T16:22:50.000Z</time>
      </trkpt>
      <trkpt lat="43.91648" lon="2.13579">
        <ele>168.849</ele>
        <time>2012-04-06T16:22:53.000Z</time>
      </trkpt>
      <trkpt lat="43.91658" lon="2.13591">
        <ele>167.887</ele>
        <time>2012-04-06T16:22:56.000Z</time>
      </trkpt>
      <trkpt lat="43.91667" lon="2.13603">
        <ele>167.887</ele>
        <time>2012-04-06T16:22:59.000Z</time>
      </trkpt>
      <trkpt lat="43.91677" lon="2.13616">
        <ele>168.368</ele>
        <time>2012-04-06T16:23:02.000Z</time>
      </trkpt>
      <trkpt lat="43.91683" lon="2.13624">
        <ele>168.368</ele>
        <time>2012-04-06T16:23:04.000Z</time>
      </trkpt>
      <trkpt lat="43.91695" lon="2.13638">
        <ele>168.368</ele>
        <time>2012-04-06T16:23:08.000Z</time>
      </trkpt>
      <trkpt lat="43.91701" lon="2.13645">
        <ele>168.368</ele>
        <time>2012-04-06T16:23:10.000Z</time>
      </trkpt>
      <trkpt lat="43.91711" lon="2.13659">
        <ele>168.368</ele>
        <time>2012-04-06T16:23:14.000Z</time>
      </trkpt>
      <trkpt lat="43.91717" lon="2.13666">
        <ele>168.849</ele>
        <time>2012-04-06T16:23:16.000Z</time>
      </trkpt>
      <trkpt lat="43.91721" lon="2.1368">
        <ele>169.81</ele>
        <time>2012-04-06T16:23:19.000Z</time>
      </trkpt>
      <trkpt lat="43.91714" lon="2.13693">
        <ele>169.329</ele>
        <time>2012-04-06T16:23:22.000Z</time>
      </trkpt>
      <trkpt lat="43.91707" lon="2.13706">
        <ele>168.368</ele>
        <time>2012-04-06T16:23:25.000Z</time>
      </trkpt>
      <trkpt lat="43.917" lon="2.1372">
        <ele>168.849</ele>
        <time>2012-04-06T16:23:28.000Z</time>
      </trkpt>
      <trkpt lat="43.91694" lon="2.13733">
        <ele>168.849</ele>
        <time>2012-04-06T16:23:31.000Z</time>
      </trkpt>
      <trkpt lat="43.91687" lon="2.13747">
        <ele>168.849</ele>
        <time>2012-04-06T16:23:34.000Z</time>
      </trkpt>
      <trkpt lat="43.91679" lon="2.13759">
        <ele>169.329</ele>
        <time>2012-04-06T16:23:37.000Z</time>
      </trkpt>
      <trkpt lat="43.91675" lon="2.13768">
        <ele>169.329</ele>
        <time>2012-04-06T16:23:39.000Z</time>
      </trkpt>
      <trkpt lat="43.91666" lon="2.13784">
        <ele>169.329</ele>
        <time>2012-04-06T16:23:43.000Z</time>
      </trkpt>
      <trkpt lat="43.9166" lon="2.1379">
        <ele>168.849</ele>
        <time>2012-04-06T16:23:50.000Z</time>
      </trkpt>
      <trkpt lat="43.91651" lon="2.13782">
        <ele>169.329</ele>
        <time>2012-04-06T16:23:54.000Z</time>
      </trkpt>
      <trkpt lat="43.91643" lon="2.13786">
        <ele>169.329</ele>
        <time>2012-04-06T16:23:57.000Z</time>
      </trkpt>
      <trkpt lat="43.91636" lon="2.13796">
        <ele>169.81</ele>
        <time>2012-04-06T16:24:00.000Z</time>
      </trkpt>
      <trkpt lat="43.91629" lon="2.13808">
        <ele>169.329</ele>
        <time>2012-04-06T16:24:03.000Z</time>
      </trkpt>
      <trkpt lat="43.91624" lon="2.13821">
        <ele>169.81</ele>
        <time>2012-04-06T16:24:06.000Z</time>
      </trkpt>
      <trkpt lat="43.91619" lon="2.13834">
        <ele>169.81</ele>
        <time>2012-04-06T16:24:09.000Z</time>
      </trkpt>
      <trkpt lat="43.91614" lon="2.13845">
        <ele>169.329</ele>
        <time>2012-04-06T16:24:12.000Z</time>
      </trkpt>
      <trkpt lat="43.91605" lon="2.13848">
        <ele>168.849</ele>
        <time>2012-04-06T16:24:16.000Z</time>
      </trkpt>
      <trkpt lat="43.91595" lon="2.13853">
        <ele>169.81</ele>
        <time>2012-04-06T16:24:20.000Z</time>
      </trkpt>
      <trkpt lat="43.91588" lon="2.13865">
        <ele>169.81</ele>
        <time>2012-04-06T16:24:24.000Z</time>
      </trkpt>
      <trkpt lat="43.9158" lon="2.13874">
        <ele>169.81</ele>
        <time>2012-04-06T16:24:27.000Z</time>
      </trkpt>
      <trkpt lat="43.91573" lon="2.13885">
        <ele>169.329</ele>
        <time>2012-04-06T16:24:30.000Z</time>
      </trkpt>
      <trkpt lat="43.91568" lon="2.13896">
        <ele>170.291</ele>
        <time>2012-04-06T16:24:33.000Z</time>
      </trkpt>
      <trkpt lat="43.91562" lon="2.13908">
        <ele>169.81</ele>
        <time>2012-04-06T16:24:36.000Z</time>
      </trkpt>
      <trkpt lat="43.91557" lon="2.1392">
        <ele>170.291</ele>
        <time>2012-04-06T16:24:39.000Z</time>
      </trkpt>
      <trkpt lat="43.91551" lon="2.13932">
        <ele>170.291</ele>
        <time>2012-04-06T16:24:42.000Z</time>
      </trkpt>
      <trkpt lat="43.91545" lon="2.13945">
        <ele>170.291</ele>
        <time>2012-04-06T16:24:45.000Z</time>
      </trkpt>
      <trkpt lat="43.9154" lon="2.13957">
        <ele>169.81</ele>
        <time>2012-04-06T16:24:48.000Z</time>
      </trkpt>
      <trkpt lat="43.91534" lon="2.13969">
        <ele>169.81</ele>
        <time>2012-04-06T16:24:51.000Z</time>
      </trkpt>
      <trkpt lat="43.91528" lon="2.1398">
        <ele>169.329</ele>
        <time>2012-04-06T16:24:54.000Z</time>
      </trkpt>
      <trkpt lat="43.9152" lon="2.13977">
        <ele>169.329</ele>
        <time>2012-04-06T16:24:57.000Z</time>
      </trkpt>
      <trkpt lat="43.91513" lon="2.13968">
        <ele>169.329</ele>
        <time>2012-04-06T16:25:00.000Z</time>
      </trkpt>
      <trkpt lat="43.91506" lon="2.13957">
        <ele>169.81</ele>
        <time>2012-04-06T16:25:03.000Z</time>
      </trkpt>
      <trkpt lat="43.91499" lon="2.13948">
        <ele>169.81</ele>
        <time>2012-04-06T16:25:06.000Z</time>
      </trkpt>
      <trkpt lat="43.9149" lon="2.13939">
        <ele>170.291</ele>
        <time>2012-04-06T16:25:10.000Z</time>
      </trkpt>
      <trkpt lat="43.91479" lon="2.13941">
        <ele>170.771</ele>
        <time>2012-04-06T16:25:14.000Z</time>
      </trkpt>
      <trkpt lat="43.91472" lon="2.13952">
        <ele>170.291</ele>
        <time>2012-04-06T16:25:17.000Z</time>
      </trkpt>
      <trkpt lat="43.91466" lon="2.13964">
        <ele>170.771</ele>
        <time>2012-04-06T16:25:20.000Z</time>
      </trkpt>
      <trkpt lat="43.91463" lon="2.13976">
        <ele>170.771</ele>
        <time>2012-04-06T16:25:23.000Z</time>
      </trkpt>
      <trkpt lat="43.91462" lon="2.1399">
        <ele>171.733</ele>
        <time>2012-04-06T16:25:26.000Z</time>
      </trkpt>
      <trkpt lat="43.9146" lon="2.14007">
        <ele>171.252</ele>
        <time>2012-04-06T16:25:29.000Z</time>
      </trkpt>
      <trkpt lat="43.9146" lon="2.14022">
        <ele>171.733</ele>
        <time>2012-04-06T16:25:32.000Z</time>
      </trkpt>
      <trkpt lat="43.9146" lon="2.14036">
        <ele>171.733</ele>
        <time>2012-04-06T16:25:35.000Z</time>
      </trkpt>
      <trkpt lat="43.9146" lon="2.14051">
        <ele>171.733</ele>
        <time>2012-04-06T16:25:38.000Z</time>
      </trkpt>
      <trkpt lat="43.91459" lon="2.14066">
        <ele>171.733</ele>
        <time>2012-04-06T16:25:41.000Z</time>
      </trkpt>
      <trkpt lat="43.91457" lon="2.14079">
        <ele>171.252</ele>
        <time>2012-04-06T16:25:44.000Z</time>
      </trkpt>
      <trkpt lat="43.91456" lon="2.14095">
        <ele>171.252</ele>
        <time>2012-04-06T16:25:49.000Z</time>
      </trkpt>
      <trkpt lat="43.91456" lon="2.14108">
        <ele>170.771</ele>
        <time>2012-04-06T16:25:52.000Z</time>
      </trkpt>
      <trkpt lat="43.91455" lon="2.14121">
        <ele>171.252</ele>
        <time>2012-04-06T16:25:55.000Z</time>
      </trkpt>
      <trkpt lat="43.91456" lon="2.14135">
        <ele>170.771</ele>
        <time>2012-04-06T16:25:58.000Z</time>
      </trkpt>
      <trkpt lat="43.91453" lon="2.14148">
        <ele>170.771</ele>
        <time>2012-04-06T16:26:02.000Z</time>
      </trkpt>
      <trkpt lat="43.91443" lon="2.14149">
        <ele>170.771</ele>
        <time>2012-04-06T16:26:06.000Z</time>
      </trkpt>
      <trkpt lat="43.91433" lon="2.14147">
        <ele>172.213</ele>
        <time>2012-04-06T16:26:09.000Z</time>
      </trkpt>
      <trkpt lat="43.91421" lon="2.14146">
        <ele>173.175</ele>
        <time>2012-04-06T16:26:12.000Z</time>
      </trkpt>
      <trkpt lat="43.9141" lon="2.14146">
        <ele>172.213</ele>
        <time>2012-04-06T16:26:15.000Z</time>
      </trkpt>
      <trkpt lat="43.914" lon="2.14145">
        <ele>173.175</ele>
        <time>2012-04-06T16:26:18.000Z</time>
      </trkpt>
      <trkpt lat="43.91396" lon="2.14133">
        <ele>173.655</ele>
        <time>2012-04-06T16:26:21.000Z</time>
      </trkpt>
      <trkpt lat="43.91396" lon="2.14118">
        <ele>174.617</ele>
        <time>2012-04-06T16:26:24.000Z</time>
      </trkpt>
      <trkpt lat="43.91397" lon="2.14103">
        <ele>174.136</ele>
        <time>2012-04-06T16:26:27.000Z</time>
      </trkpt>
      <trkpt lat="43.91398" lon="2.14087">
        <ele>174.617</ele>
        <time>2012-04-06T16:26:30.000Z</time>
      </trkpt>
      <trkpt lat="43.914" lon="2.14071">
        <ele>174.617</ele>
        <time>2012-04-06T16:26:33.000Z</time>
      </trkpt>
      <trkpt lat="43.914" lon="2.14054">
        <ele>174.617</ele>
        <time>2012-04-06T16:26:36.000Z</time>
      </trkpt>
      <trkpt lat="43.91402" lon="2.14039">
        <ele>174.136</ele>
        <time>2012-04-06T16:26:39.000Z</time>
      </trkpt>
      <trkpt lat="43.91405" lon="2.14027">
        <ele>174.136</ele>
        <time>2012-04-06T16:26:42.000Z</time>
      </trkpt>
      <trkpt lat="43.91413" lon="2.14021">
        <ele>174.617</ele>
        <time>2012-04-06T16:26:46.000Z</time>
      </trkpt>
      <trkpt lat="43.91422" lon="2.14018">
        <ele>174.617</ele>
        <time>2012-04-06T16:26:51.000Z</time>
      </trkpt>
      <trkpt lat="43.91432" lon="2.14022">
        <ele>173.655</ele>
        <time>2012-04-06T16:26:56.000Z</time>
      </trkpt>
      <trkpt lat="43.91442" lon="2.14024">
        <ele>174.136</ele>
        <time>2012-04-06T16:27:00.000Z</time>
      </trkpt>
      <trkpt lat="43.91452" lon="2.14026">
        <ele>172.213</ele>
        <time>2012-04-06T16:27:05.000Z</time>
      </trkpt>
      <trkpt lat="43.91462" lon="2.1403">
        <ele>171.733</ele>
        <time>2012-04-06T16:27:10.000Z</time>
      </trkpt>
      <trkpt lat="43.91462" lon="2.14047">
        <ele>172.213</ele>
        <time>2012-04-06T16:27:14.000Z</time>
      </trkpt>
      <trkpt lat="43.91461" lon="2.14059">
        <ele>171.733</ele>
        <time>2012-04-06T16:27:17.000Z</time>
      </trkpt>
      <trkpt lat="43.91459" lon="2.14075">
        <ele>172.213</ele>
        <time>2012-04-06T16:27:21.000Z</time>
      </trkpt>
      <trkpt lat="43.91457" lon="2.14089">
        <ele>172.694</ele>
        <time>2012-04-06T16:27:24.000Z</time>
      </trkpt>
      <trkpt lat="43.91457" lon="2.14099">
        <ele>173.175</ele>
        <time>2012-04-06T16:27:26.000Z</time>
      </trkpt>
      <trkpt lat="43.91456" lon="2.1412">
        <ele>172.213</ele>
        <time>2012-04-06T16:27:30.000Z</time>
      </trkpt>
      <trkpt lat="43.91456" lon="2.1413">
        <ele>172.213</ele>
        <time>2012-04-06T16:27:32.000Z</time>
      </trkpt>
      <trkpt lat="43.91454" lon="2.14146">
        <ele>172.694</ele>
        <time>2012-04-06T16:27:36.000Z</time>
      </trkpt>
      <trkpt lat="43.91442" lon="2.14149">
        <ele>172.694</ele>
        <time>2012-04-06T16:27:40.000Z</time>
      </trkpt>
      <trkpt lat="43.91429" lon="2.14148">
        <ele>172.213</ele>
        <time>2012-04-06T16:27:43.000Z</time>
      </trkpt>
      <trkpt lat="43.91417" lon="2.14147">
        <ele>171.252</ele>
        <time>2012-04-06T16:27:46.000Z</time>
      </trkpt>
      <trkpt lat="43.91404" lon="2.14146">
        <ele>172.213</ele>
        <time>2012-04-06T16:27:49.000Z</time>
      </trkpt>
      <trkpt lat="43.91392" lon="2.14145">
        <ele>172.694</ele>
        <time>2012-04-06T16:27:52.000Z</time>
      </trkpt>
      <trkpt lat="43.9138" lon="2.14144">
        <ele>171.733</ele>
        <time>2012-04-06T16:27:55.000Z</time>
      </trkpt>
      <trkpt lat="43.91367" lon="2.14143">
        <ele>171.733</ele>
        <time>2012-04-06T16:27:58.000Z</time>
      </trkpt>
      <trkpt lat="43.91356" lon="2.14142">
        <ele>172.213</ele>
        <time>2012-04-06T16:28:01.000Z</time>
      </trkpt>
      <trkpt lat="43.9134" lon="2.14141">
        <ele>170.771</ele>
        <time>2012-04-06T16:28:05.000Z</time>
      </trkpt>
      <trkpt lat="43.91332" lon="2.1414">
        <ele>171.733</ele>
        <time>2012-04-06T16:28:07.000Z</time>
      </trkpt>
      <trkpt lat="43.91318" lon="2.14133">
        <ele>174.136</ele>
        <time>2012-04-06T16:28:11.000Z</time>
      </trkpt>
      <trkpt lat="43.91314" lon="2.14125">
        <ele>174.136</ele>
        <time>2012-04-06T16:28:13.000Z</time>
      </trkpt>
      <trkpt lat="43.91312" lon="2.14108">
        <ele>173.655</ele>
        <time>2012-04-06T16:28:16.000Z</time>
      </trkpt>
      <trkpt lat="43.91314" lon="2.1409">
        <ele>173.655</ele>
        <time>2012-04-06T16:28:19.000Z</time>
      </trkpt>
      <trkpt lat="43.91317" lon="2.14071">
        <ele>174.617</ele>
        <time>2012-04-06T16:28:22.000Z</time>
      </trkpt>
      <trkpt lat="43.9132" lon="2.14052">
        <ele>175.578</ele>
        <time>2012-04-06T16:28:25.000Z</time>
      </trkpt>
      <trkpt lat="43.91319" lon="2.14041">
        <ele>174.617</ele>
        <time>2012-04-06T16:28:29.000Z</time>
      </trkpt>
      <trkpt lat="43.91312" lon="2.14034">
        <ele>174.617</ele>
        <time>2012-04-06T16:28:34.000Z</time>
      </trkpt>
      <trkpt lat="43.91308" lon="2.14022">
        <ele>176.059</ele>
        <time>2012-04-06T16:28:38.000Z</time>
      </trkpt>
      <trkpt lat="43.91308" lon="2.14011">
        <ele>176.539</ele>
        <time>2012-04-06T16:28:42.000Z</time>
      </trkpt>
      <trkpt lat="43.91318" lon="2.14005">
        <ele>176.539</ele>
        <time>2012-04-06T16:28:46.000Z</time>
      </trkpt>
      <trkpt lat="43.91316" lon="2.13989">
        <ele>176.539</ele>
        <time>2012-04-06T16:28:50.000Z</time>
      </trkpt>
      <trkpt lat="43.91312" lon="2.13978">
        <ele>177.02</ele>
        <time>2012-04-06T16:28:53.000Z</time>
      </trkpt>
      <trkpt lat="43.91308" lon="2.13966">
        <ele>177.02</ele>
        <time>2012-04-06T16:28:56.000Z</time>
      </trkpt>
      <trkpt lat="43.91305" lon="2.13951">
        <ele>177.02</ele>
        <time>2012-04-06T16:29:00.000Z</time>
      </trkpt>
      <trkpt lat="43.91299" lon="2.13938">
        <ele>176.539</ele>
        <time>2012-04-06T16:29:05.000Z</time>
      </trkpt>
      <trkpt lat="43.91293" lon="2.13925">
        <ele>177.02</ele>
        <time>2012-04-06T16:29:09.000Z</time>
      </trkpt>
      <trkpt lat="43.91286" lon="2.13914">
        <ele>177.981</ele>
        <time>2012-04-06T16:29:12.000Z</time>
      </trkpt>
      <trkpt lat="43.91277" lon="2.13904">
        <ele>176.059</ele>
        <time>2012-04-06T16:29:16.000Z</time>
      </trkpt>
      <trkpt lat="43.91266" lon="2.13899">
        <ele>175.578</ele>
        <time>2012-04-06T16:29:20.000Z</time>
      </trkpt>
      <trkpt lat="43.91261" lon="2.13892">
        <ele>175.578</ele>
        <time>2012-04-06T16:29:23.000Z</time>
      </trkpt>
      <trkpt lat="43.91265" lon="2.13874">
        <ele>175.097</ele>
        <time>2012-04-06T16:29:27.000Z</time>
      </trkpt>
      <trkpt lat="43.91267" lon="2.1386">
        <ele>174.617</ele>
        <time>2012-04-06T16:29:30.000Z</time>
      </trkpt>
      <trkpt lat="43.9127" lon="2.13844">
        <ele>174.617</ele>
        <time>2012-04-06T16:29:33.000Z</time>
      </trkpt>
      <trkpt lat="43.91273" lon="2.1383">
        <ele>175.097</ele>
        <time>2012-04-06T16:29:36.000Z</time>
      </trkpt>
      <trkpt lat="43.91269" lon="2.1382">
        <ele>174.617</ele>
        <time>2012-04-06T16:29:39.000Z</time>
      </trkpt>
      <trkpt lat="43.91258" lon="2.13822">
        <ele>175.097</ele>
        <time>2012-04-06T16:29:42.000Z</time>
      </trkpt>
      <trkpt lat="43.91248" lon="2.13821">
        <ele>176.539</ele>
        <time>2012-04-06T16:29:45.000Z</time>
      </trkpt>
      <trkpt lat="43.91243" lon="2.13808">
        <ele>177.501</ele>
        <time>2012-04-06T16:29:49.000Z</time>
      </trkpt>
      <trkpt lat="43.91236" lon="2.13798">
        <ele>176.539</ele>
        <time>2012-04-06T16:29:53.000Z</time>
      </trkpt>
      <trkpt lat="43.91231" lon="2.13785">
        <ele>175.578</ele>
        <time>2012-04-06T16:29:57.000Z</time>
      </trkpt>
      <trkpt lat="43.91229" lon="2.13771">
        <ele>177.02</ele>
        <time>2012-04-06T16:30:01.000Z</time>
      </trkpt>
      <trkpt lat="43.9123" lon="2.13754">
        <ele>176.059</ele>
        <time>2012-04-06T16:30:05.000Z</time>
      </trkpt>
      <trkpt lat="43.91228" lon="2.13741">
        <ele>175.097</ele>
        <time>2012-04-06T16:30:08.000Z</time>
      </trkpt>
      <trkpt lat="43.91222" lon="2.13727">
        <ele>175.097</ele>
        <time>2012-04-06T16:30:12.000Z</time>
      </trkpt>
      <trkpt lat="43.91216" lon="2.13719">
        <ele>174.617</ele>
        <time>2012-04-06T16:30:17.000Z</time>
      </trkpt>
      <trkpt lat="43.91213" lon="2.13707">
        <ele>174.136</ele>
        <time>2012-04-06T16:30:21.000Z</time>
      </trkpt>
      <trkpt lat="43.91212" lon="2.13691">
        <ele>173.175</ele>
        <time>2012-04-06T16:30:26.000Z</time>
      </trkpt>
      <trkpt lat="43.91212" lon="2.13677">
        <ele>173.175</ele>
        <time>2012-04-06T16:30:31.000Z</time>
      </trkpt>
      <trkpt lat="43.91209" lon="2.13662">
        <ele>174.136</ele>
        <time>2012-04-06T16:30:35.000Z</time>
      </trkpt>
      <trkpt lat="43.91209" lon="2.13647">
        <ele>173.175</ele>
        <time>2012-04-06T16:30:40.000Z</time>
      </trkpt>
      <trkpt lat="43.91208" lon="2.13635">
        <ele>172.213</ele>
        <time>2012-04-06T16:30:44.000Z</time>
      </trkpt>
      <trkpt lat="43.91203" lon="2.1362">
        <ele>172.213</ele>
        <time>2012-04-06T16:30:48.000Z</time>
      </trkpt>
      <trkpt lat="43.91206" lon="2.13609">
        <ele>171.733</ele>
        <time>2012-04-06T16:30:54.000Z</time>
      </trkpt>
      <trkpt lat="43.91208" lon="2.13595">
        <ele>171.252</ele>
        <time>2012-04-06T16:31:01.000Z</time>
      </trkpt>
      <trkpt lat="43.91217" lon="2.13587">
        <ele>170.291</ele>
        <time>2012-04-06T16:31:05.000Z</time>
      </trkpt>
      <trkpt lat="43.91226" lon="2.13583">
        <ele>170.291</ele>
        <time>2012-04-06T16:31:08.000Z</time>
      </trkpt>
      <trkpt lat="43.91236" lon="2.13577">
        <ele>169.81</ele>
        <time>2012-04-06T16:31:12.000Z</time>
      </trkpt>
      <trkpt lat="43.91236" lon="2.13561">
        <ele>169.81</ele>
        <time>2012-04-06T16:31:16.000Z</time>
      </trkpt>
      <trkpt lat="43.91234" lon="2.13545">
        <ele>169.329</ele>
        <time>2012-04-06T16:31:19.000Z</time>
      </trkpt>
      <trkpt lat="43.91231" lon="2.13523">
        <ele>168.849</ele>
        <time>2012-04-06T16:31:23.000Z</time>
      </trkpt>
      <trkpt lat="43.91232" lon="2.13511">
        <ele>168.849</ele>
        <time>2012-04-06T16:31:25.000Z</time>
      </trkpt>
      <trkpt lat="43.91236" lon="2.13494">
        <ele>168.368</ele>
        <time>2012-04-06T16:31:28.000Z</time>
      </trkpt>
      <trkpt lat="43.9124" lon="2.13482">
        <ele>167.887</ele>
        <time>2012-04-06T16:31:31.000Z</time>
      </trkpt>
      <trkpt lat="43.91234" lon="2.13469">
        <ele>167.407</ele>
        <time>2012-04-06T16:31:35.000Z</time>
      </trkpt>
      <trkpt lat="43.91224" lon="2.13462">
        <ele>167.407</ele>
        <time>2012-04-06T16:31:38.000Z</time>
      </trkpt>
      <trkpt lat="43.91214" lon="2.13457">
        <ele>167.887</ele>
        <time>2012-04-06T16:31:41.000Z</time>
      </trkpt>
      <trkpt lat="43.91204" lon="2.13454">
        <ele>167.407</ele>
        <time>2012-04-06T16:31:44.000Z</time>
      </trkpt>
      <trkpt lat="43.91193" lon="2.13452">
        <ele>167.407</ele>
        <time>2012-04-06T16:31:47.000Z</time>
      </trkpt>
      <trkpt lat="43.91183" lon="2.13451">
        <ele>168.849</ele>
        <time>2012-04-06T16:31:50.000Z</time>
      </trkpt>
      <trkpt lat="43.91172" lon="2.13449">
        <ele>169.81</ele>
        <time>2012-04-06T16:31:53.000Z</time>
      </trkpt>
      <trkpt lat="43.91161" lon="2.13447">
        <ele>168.368</ele>
        <time>2012-04-06T16:31:56.000Z</time>
      </trkpt>
      <trkpt lat="43.9115" lon="2.13445">
        <ele>168.368</ele>
        <time>2012-04-06T16:31:59.000Z</time>
      </trkpt>
      <trkpt lat="43.9114" lon="2.13443">
        <ele>167.887</ele>
        <time>2012-04-06T16:32:02.000Z</time>
      </trkpt>
      <trkpt lat="43.9113" lon="2.13444">
        <ele>167.407</ele>
        <time>2012-04-06T16:32:05.000Z</time>
      </trkpt>
      <trkpt lat="43.91121" lon="2.13453">
        <ele>167.887</ele>
        <time>2012-04-06T16:32:09.000Z</time>
      </trkpt>
      <trkpt lat="43.91113" lon="2.13462">
        <ele>167.407</ele>
        <time>2012-04-06T16:32:13.000Z</time>
      </trkpt>
      <trkpt lat="43.91106" lon="2.13471">
        <ele>166.926</ele>
        <time>2012-04-06T16:32:16.000Z</time>
      </trkpt>
      <trkpt lat="43.91099" lon="2.13485">
        <ele>166.445</ele>
        <time>2012-04-06T16:32:20.000Z</time>
      </trkpt>
      <trkpt lat="43.91089" lon="2.13486">
        <ele>167.887</ele>
        <time>2012-04-06T16:32:26.000Z</time>
      </trkpt>
      <trkpt lat="43.91089" lon="2.13472">
        <ele>167.887</ele>
        <time>2012-04-06T16:32:31.000Z</time>
      </trkpt>
      <trkpt lat="43.91089" lon="2.13458">
        <ele>167.887</ele>
        <time>2012-04-06T16:32:35.000Z</time>
      </trkpt>
      <trkpt lat="43.9109" lon="2.1344">
        <ele>168.368</ele>
        <time>2012-04-06T16:32:39.000Z</time>
      </trkpt>
      <trkpt lat="43.91091" lon="2.13427">
        <ele>168.849</ele>
        <time>2012-04-06T16:32:42.000Z</time>
      </trkpt>
      <trkpt lat="43.91087" lon="2.13416">
        <ele>168.368</ele>
        <time>2012-04-06T16:32:45.000Z</time>
      </trkpt>
      <trkpt lat="43.91078" lon="2.13412">
        <ele>169.329</ele>
        <time>2012-04-06T16:32:48.000Z</time>
      </trkpt>
      <trkpt lat="43.91068" lon="2.13406">
        <ele>171.252</ele>
        <time>2012-04-06T16:32:52.000Z</time>
      </trkpt>
      <trkpt lat="43.91059" lon="2.134">
        <ele>171.252</ele>
        <time>2012-04-06T16:32:57.000Z</time>
      </trkpt>
      <trkpt lat="43.9105" lon="2.13392">
        <ele>171.252</ele>
        <time>2012-04-06T16:33:08.000Z</time>
      </trkpt>
      <trkpt lat="43.91042" lon="2.13384">
        <ele>171.733</ele>
        <time>2012-04-06T16:33:12.000Z</time>
      </trkpt>
      <trkpt lat="43.91034" lon="2.13377">
        <ele>172.694</ele>
        <time>2012-04-06T16:33:16.000Z</time>
      </trkpt>
      <trkpt lat="43.91027" lon="2.13367">
        <ele>174.136</ele>
        <time>2012-04-06T16:33:21.000Z</time>
      </trkpt>
      <trkpt lat="43.91022" lon="2.13353">
        <ele>175.097</ele>
        <time>2012-04-06T16:33:25.000Z</time>
      </trkpt>
      <trkpt lat="43.91018" lon="2.13338">
        <ele>175.578</ele>
        <time>2012-04-06T16:33:29.000Z</time>
      </trkpt>
      <trkpt lat="43.91014" lon="2.13324">
        <ele>176.539</ele>
        <time>2012-04-06T16:33:33.000Z</time>
      </trkpt>
      <trkpt lat="43.91008" lon="2.1331">
        <ele>177.501</ele>
        <time>2012-04-06T16:33:37.000Z</time>
      </trkpt>
      <trkpt lat="43.91003" lon="2.13298">
        <ele>177.981</ele>
        <time>2012-04-06T16:33:41.000Z</time>
      </trkpt>
      <trkpt lat="43.90998" lon="2.13288">
        <ele>178.462</ele>
        <time>2012-04-06T16:33:44.000Z</time>
      </trkpt>
      <trkpt lat="43.90991" lon="2.13275">
        <ele>179.423</ele>
        <time>2012-04-06T16:33:49.000Z</time>
      </trkpt>
      <trkpt lat="43.90986" lon="2.13263">
        <ele>180.385</ele>
        <time>2012-04-06T16:33:53.000Z</time>
      </trkpt>
      <trkpt lat="43.9098" lon="2.13251">
        <ele>180.865</ele>
        <time>2012-04-06T16:33:57.000Z</time>
      </trkpt>
      <trkpt lat="43.90976" lon="2.1324">
        <ele>182.307</ele>
        <time>2012-04-06T16:34:01.000Z</time>
      </trkpt>
      <trkpt lat="43.90971" lon="2.13228">
        <ele>182.788</ele>
        <time>2012-04-06T16:34:05.000Z</time>
      </trkpt>
      <trkpt lat="43.90965" lon="2.13215">
        <ele>183.268</ele>
        <time>2012-04-06T16:34:10.000Z</time>
      </trkpt>
      <trkpt lat="43.90956" lon="2.13209">
        <ele>183.268</ele>
        <time>2012-04-06T16:34:15.000Z</time>
      </trkpt>
      <trkpt lat="43.90946" lon="2.13208">
        <ele>185.191</ele>
        <time>2012-04-06T16:34:21.000Z</time>
      </trkpt>
      <trkpt lat="43.90935" lon="2.13207">
        <ele>185.672</ele>
        <time>2012-04-06T16:34:27.000Z</time>
      </trkpt>
      <trkpt lat="43.90925" lon="2.13206">
        <ele>185.672</ele>
        <time>2012-04-06T16:34:32.000Z</time>
      </trkpt>
      <trkpt lat="43.90917" lon="2.13206">
        <ele>186.633</ele>
        <time>2012-04-06T16:34:37.000Z</time>
      </trkpt>
      <trkpt lat="43.90908" lon="2.13207">
        <ele>188.075</ele>
        <time>2012-04-06T16:34:43.000Z</time>
      </trkpt>
      <trkpt lat="43.90899" lon="2.13206">
        <ele>189.517</ele>
        <time>2012-04-06T16:34:49.000Z</time>
      </trkpt>
      <trkpt lat="43.90889" lon="2.13204">
        <ele>191.44</ele>
        <time>2012-04-06T16:34:56.000Z</time>
      </trkpt>
      <trkpt lat="43.9088" lon="2.13198">
        <ele>191.92</ele>
        <time>2012-04-06T16:35:02.000Z</time>
      </trkpt>
      <trkpt lat="43.90873" lon="2.13188">
        <ele>190.959</ele>
        <time>2012-04-06T16:35:06.000Z</time>
      </trkpt>
      <trkpt lat="43.90866" lon="2.13176">
        <ele>191.44</ele>
        <time>2012-04-06T16:35:10.000Z</time>
      </trkpt>
      <trkpt lat="43.90862" lon="2.13165">
        <ele>191.44</ele>
        <time>2012-04-06T16:35:13.000Z</time>
      </trkpt>
      <trkpt lat="43.90858" lon="2.13151">
        <ele>190.959</ele>
        <time>2012-04-06T16:35:17.000Z</time>
      </trkpt>
      <trkpt lat="43.90855" lon="2.13136">
        <ele>191.44</ele>
        <time>2012-04-06T16:35:21.000Z</time>
      </trkpt>
      <trkpt lat="43.90853" lon="2.13122">
        <ele>191.44</ele>
        <time>2012-04-06T16:35:25.000Z</time>
      </trkpt>
      <trkpt lat="43.9085" lon="2.13108">
        <ele>191.92</ele>
        <time>2012-04-06T16:35:29.000Z</time>
      </trkpt>
      <trkpt lat="43.90848" lon="2.13091">
        <ele>191.92</ele>
        <time>2012-04-06T16:35:33.000Z</time>
      </trkpt>
      <trkpt lat="43.90845" lon="2.13076">
        <ele>193.362</ele>
        <time>2012-04-06T16:35:37.000Z</time>
      </trkpt>
      <trkpt lat="43.90843" lon="2.13065">
        <ele>193.843</ele>
        <time>2012-04-06T16:35:40.000Z</time>
      </trkpt>
      <trkpt lat="43.90839" lon="2.13051">
        <ele>194.324</ele>
        <time>2012-04-06T16:35:44.000Z</time>
      </trkpt>
      <trkpt lat="43.90837" lon="2.13038">
        <ele>195.285</ele>
        <time>2012-04-06T16:35:48.000Z</time>
      </trkpt>
      <trkpt lat="43.90834" lon="2.13027">
        <ele>195.285</ele>
        <time>2012-04-06T16:35:52.000Z</time>
      </trkpt>
      <trkpt lat="43.90838" lon="2.13019">
        <ele>195.285</ele>
        <time>2012-04-06T16:36:00.000Z</time>
      </trkpt>
      <trkpt lat="43.90847" lon="2.13014">
        <ele>194.324</ele>
        <time>2012-04-06T16:36:04.000Z</time>
      </trkpt>
      <trkpt lat="43.90858" lon="2.13015">
        <ele>193.843</ele>
        <time>2012-04-06T16:36:07.000Z</time>
      </trkpt>
      <trkpt lat="43.9087" lon="2.13016">
        <ele>192.882</ele>
        <time>2012-04-06T16:36:10.000Z</time>
      </trkpt>
      <trkpt lat="43.90883" lon="2.13018">
        <ele>191.92</ele>
        <time>2012-04-06T16:36:13.000Z</time>
      </trkpt>
      <trkpt lat="43.90894" lon="2.1302">
        <ele>190.959</ele>
        <time>2012-04-06T16:36:15.000Z</time>
      </trkpt>
      <trkpt lat="43.90904" lon="2.13021">
        <ele>189.998</ele>
        <time>2012-04-06T16:36:17.000Z</time>
      </trkpt>
      <trkpt lat="43.90915" lon="2.13022">
        <ele>189.036</ele>
        <time>2012-04-06T16:36:19.000Z</time>
      </trkpt>
      <trkpt lat="43.90926" lon="2.13022">
        <ele>188.556</ele>
        <time>2012-04-06T16:36:21.000Z</time>
      </trkpt>
      <trkpt lat="43.90939" lon="2.13021">
        <ele>187.594</ele>
        <time>2012-04-06T16:36:23.000Z</time>
      </trkpt>
      <trkpt lat="43.90952" lon="2.13018">
        <ele>186.633</ele>
        <time>2012-04-06T16:36:25.000Z</time>
      </trkpt>
      <trkpt lat="43.90965" lon="2.13015">
        <ele>185.672</ele>
        <time>2012-04-06T16:36:27.000Z</time>
      </trkpt>
      <trkpt lat="43.90977" lon="2.13011">
        <ele>184.711</ele>
        <time>2012-04-06T16:36:29.000Z</time>
      </trkpt>
      <trkpt lat="43.9099" lon="2.13008">
        <ele>183.749</ele>
        <time>2012-04-06T16:36:31.000Z</time>
      </trkpt>
      <trkpt lat="43.91002" lon="2.13005">
        <ele>183.268</ele>
        <time>2012-04-06T16:36:33.000Z</time>
      </trkpt>
      <trkpt lat="43.91013" lon="2.13002">
        <ele>181.826</ele>
        <time>2012-04-06T16:36:35.000Z</time>
      </trkpt>
      <trkpt lat="43.91024" lon="2.12996">
        <ele>180.865</ele>
        <time>2012-04-06T16:36:37.000Z</time>
      </trkpt>
      <trkpt lat="43.91035" lon="2.12989">
        <ele>179.904</ele>
        <time>2012-04-06T16:36:39.000Z</time>
      </trkpt>
      <trkpt lat="43.91049" lon="2.12979">
        <ele>178.462</ele>
        <time>2012-04-06T16:36:42.000Z</time>
      </trkpt>
      <trkpt lat="43.9106" lon="2.12971">
        <ele>177.501</ele>
        <time>2012-04-06T16:36:45.000Z</time>
      </trkpt>
      <trkpt lat="43.91072" lon="2.12972">
        <ele>177.02</ele>
        <time>2012-04-06T16:36:48.000Z</time>
      </trkpt>
      <trkpt lat="43.91086" lon="2.12981">
        <ele>176.059</ele>
        <time>2012-04-06T16:36:51.000Z</time>
      </trkpt>
      <trkpt lat="43.91098" lon="2.12987">
        <ele>175.097</ele>
        <time>2012-04-06T16:36:53.000Z</time>
      </trkpt>
      <trkpt lat="43.91111" lon="2.12992">
        <ele>174.136</ele>
        <time>2012-04-06T16:36:55.000Z</time>
      </trkpt>
      <trkpt lat="43.91118" lon="2.12993">
        <ele>173.655</ele>
        <time>2012-04-06T16:36:56.000Z</time>
      </trkpt>
      <trkpt lat="43.91132" lon="2.12996">
        <ele>173.175</ele>
        <time>2012-04-06T16:36:58.000Z</time>
      </trkpt>
      <trkpt lat="43.91145" lon="2.13">
        <ele>172.694</ele>
        <time>2012-04-06T16:37:00.000Z</time>
      </trkpt>
      <trkpt lat="43.91156" lon="2.13005">
        <ele>172.213</ele>
        <time>2012-04-06T16:37:02.000Z</time>
      </trkpt>
      <trkpt lat="43.91162" lon="2.13021">
        <ele>171.252</ele>
        <time>2012-04-06T16:37:05.000Z</time>
      </trkpt>
      <trkpt lat="43.91162" lon="2.13033">
        <ele>170.771</ele>
        <time>2012-04-06T16:37:08.000Z</time>
      </trkpt>
      <trkpt lat="43.91159" lon="2.1304">
        <ele>170.771</ele>
        <time>2012-04-06T16:37:17.000Z</time>
      </trkpt>
      <trkpt lat="43.91164" lon="2.13029">
        <ele>169.329</ele>
        <time>2012-04-06T16:37:24.000Z</time>
      </trkpt>
      <trkpt lat="43.91176" lon="2.13036">
        <ele>167.407</ele>
        <time>2012-04-06T16:37:28.000Z</time>
      </trkpt>
      <trkpt lat="43.91191" lon="2.1304">
        <ele>166.445</ele>
        <time>2012-04-06T16:37:31.000Z</time>
      </trkpt>
      <trkpt lat="43.91209" lon="2.1305">
        <ele>165.484</ele>
        <time>2012-04-06T16:37:34.000Z</time>
      </trkpt>
      <trkpt lat="43.91219" lon="2.1306">
        <ele>165.003</ele>
        <time>2012-04-06T16:37:36.000Z</time>
      </trkpt>
      <trkpt lat="43.91229" lon="2.13067">
        <ele>164.523</ele>
        <time>2012-04-06T16:37:38.000Z</time>
      </trkpt>
      <trkpt lat="43.9124" lon="2.13077">
        <ele>164.042</ele>
        <time>2012-04-06T16:37:40.000Z</time>
      </trkpt>
      <trkpt lat="43.91251" lon="2.13084">
        <ele>164.042</ele>
        <time>2012-04-06T16:37:42.000Z</time>
      </trkpt>
      <trkpt lat="43.91256" lon="2.13088">
        <ele>164.042</ele>
        <time>2012-04-06T16:37:43.000Z</time>
      </trkpt>
      <trkpt lat="43.91267" lon="2.13096">
        <ele>164.042</ele>
        <time>2012-04-06T16:37:45.000Z</time>
      </trkpt>
      <trkpt lat="43.91277" lon="2.13104">
        <ele>163.562</ele>
        <time>2012-04-06T16:37:47.000Z</time>
      </trkpt>
      <trkpt lat="43.91288" lon="2.13111">
        <ele>163.081</ele>
        <time>2012-04-06T16:37:49.000Z</time>
      </trkpt>
      <trkpt lat="43.91298" lon="2.13118">
        <ele>163.081</ele>
        <time>2012-04-06T16:37:51.000Z</time>
      </trkpt>
      <trkpt lat="43.91307" lon="2.13124">
        <ele>163.081</ele>
        <time>2012-04-06T16:37:53.000Z</time>
      </trkpt>
      <trkpt lat="43.91312" lon="2.13128">
        <ele>162.6</ele>
        <time>2012-04-06T16:37:54.000Z</time>
      </trkpt>
      <trkpt lat="43.91326" lon="2.13101">
        <ele>161.639</ele>
        <time>2012-04-06T16:38:24.000Z</time>
      </trkpt>
      <trkpt lat="43.91328" lon="2.13081">
        <ele>161.639</ele>
        <time>2012-04-06T16:38:27.000Z</time>
      </trkpt>
      <trkpt lat="43.9133" lon="2.13068">
        <ele>161.639</ele>
        <time>2012-04-06T16:38:29.000Z</time>
      </trkpt>
      <trkpt lat="43.91332" lon="2.13056">
        <ele>161.639</ele>
        <time>2012-04-06T16:38:31.000Z</time>
      </trkpt>
      <trkpt lat="43.91333" lon="2.13043">
        <ele>161.639</ele>
        <time>2012-04-06T16:38:33.000Z</time>
      </trkpt>
      <trkpt lat="43.91335" lon="2.1303">
        <ele>161.639</ele>
        <time>2012-04-06T16:38:35.000Z</time>
      </trkpt>
      <trkpt lat="43.91338" lon="2.1301">
        <ele>161.639</ele>
        <time>2012-04-06T16:38:38.000Z</time>
      </trkpt>
      <trkpt lat="43.91339" lon="2.12997">
        <ele>162.12</ele>
        <time>2012-04-06T16:38:40.000Z</time>
      </trkpt>
      <trkpt lat="43.91341" lon="2.12984">
        <ele>162.6</ele>
        <time>2012-04-06T16:38:42.000Z</time>
      </trkpt>
      <trkpt lat="43.91343" lon="2.12971">
        <ele>163.081</ele>
        <time>2012-04-06T16:38:44.000Z</time>
      </trkpt>
      <trkpt lat="43.91344" lon="2.12957">
        <ele>163.081</ele>
        <time>2012-04-06T16:38:46.000Z</time>
      </trkpt>
      <trkpt lat="43.91345" lon="2.12944">
        <ele>163.081</ele>
        <time>2012-04-06T16:38:48.000Z</time>
      </trkpt>
      <trkpt lat="43.91347" lon="2.1293">
        <ele>163.081</ele>
        <time>2012-04-06T16:38:50.000Z</time>
      </trkpt>
      <trkpt lat="43.91348" lon="2.12916">
        <ele>163.562</ele>
        <time>2012-04-06T16:38:52.000Z</time>
      </trkpt>
      <trkpt lat="43.91348" lon="2.12903">
        <ele>163.562</ele>
        <time>2012-04-06T16:38:54.000Z</time>
      </trkpt>
      <trkpt lat="43.91349" lon="2.1289">
        <ele>163.562</ele>
        <time>2012-04-06T16:38:56.000Z</time>
      </trkpt>
      <trkpt lat="43.91349" lon="2.12877">
        <ele>163.562</ele>
        <time>2012-04-06T16:38:58.000Z</time>
      </trkpt>
      <trkpt lat="43.91351" lon="2.12858">
        <ele>164.042</ele>
        <time>2012-04-06T16:39:01.000Z</time>
      </trkpt>
      <trkpt lat="43.91354" lon="2.12845">
        <ele>164.042</ele>
        <time>2012-04-06T16:39:03.000Z</time>
      </trkpt>
      <trkpt lat="43.91356" lon="2.12832">
        <ele>164.042</ele>
        <time>2012-04-06T16:39:05.000Z</time>
      </trkpt>
      <trkpt lat="43.91359" lon="2.1282">
        <ele>163.562</ele>
        <time>2012-04-06T16:39:07.000Z</time>
      </trkpt>
      <trkpt lat="43.91362" lon="2.12803">
        <ele>163.562</ele>
        <time>2012-04-06T16:39:10.000Z</time>
      </trkpt>
      <trkpt lat="43.91365" lon="2.12785">
        <ele>163.562</ele>
        <time>2012-04-06T16:39:13.000Z</time>
      </trkpt>
      <trkpt lat="43.91368" lon="2.12772">
        <ele>163.562</ele>
        <time>2012-04-06T16:39:15.000Z</time>
      </trkpt>
      <trkpt lat="43.9137" lon="2.1276">
        <ele>163.562</ele>
        <time>2012-04-06T16:39:17.000Z</time>
      </trkpt>
      <trkpt lat="43.91372" lon="2.12748">
        <ele>163.562</ele>
        <time>2012-04-06T16:39:19.000Z</time>
      </trkpt>
      <trkpt lat="43.91374" lon="2.12735">
        <ele>163.562</ele>
        <time>2012-04-06T16:39:21.000Z</time>
      </trkpt>
      <trkpt lat="43.91376" lon="2.12722">
        <ele>164.042</ele>
        <time>2012-04-06T16:39:23.000Z</time>
      </trkpt>
      <trkpt lat="43.91379" lon="2.12709">
        <ele>164.042</ele>
        <time>2012-04-06T16:39:25.000Z</time>
      </trkpt>
      <trkpt lat="43.91381" lon="2.12695">
        <ele>163.562</ele>
        <time>2012-04-06T16:39:27.000Z</time>
      </trkpt>
      <trkpt lat="43.91384" lon="2.12681">
        <ele>163.081</ele>
        <time>2012-04-06T16:39:29.000Z</time>
      </trkpt>
      <trkpt lat="43.91388" lon="2.12667">
        <ele>163.081</ele>
        <time>2012-04-06T16:39:31.000Z</time>
      </trkpt>
      <trkpt lat="43.91396" lon="2.12655">
        <ele>163.081</ele>
        <time>2012-04-06T16:39:33.000Z</time>
      </trkpt>
      <trkpt lat="43.91416" lon="2.12652">
        <ele>162.6</ele>
        <time>2012-04-06T16:39:36.000Z</time>
      </trkpt>
      <trkpt lat="43.9143" lon="2.12654">
        <ele>161.639</ele>
        <time>2012-04-06T16:39:38.000Z</time>
      </trkpt>
      <trkpt lat="43.91443" lon="2.12658">
        <ele>161.639</ele>
        <time>2012-04-06T16:39:40.000Z</time>
      </trkpt>
      <trkpt lat="43.91456" lon="2.12664">
        <ele>161.158</ele>
        <time>2012-04-06T16:39:42.000Z</time>
      </trkpt>
      <trkpt lat="43.91468" lon="2.1267">
        <ele>160.677</ele>
        <time>2012-04-06T16:39:44.000Z</time>
      </trkpt>
      <trkpt lat="43.9148" lon="2.12678">
        <ele>160.677</ele>
        <time>2012-04-06T16:39:46.000Z</time>
      </trkpt>
      <trkpt lat="43.91492" lon="2.12682">
        <ele>160.197</ele>
        <time>2012-04-06T16:39:48.000Z</time>
      </trkpt>
      <trkpt lat="43.91503" lon="2.12683">
        <ele>160.197</ele>
        <time>2012-04-06T16:39:50.000Z</time>
      </trkpt>
      <trkpt lat="43.91513" lon="2.12681">
        <ele>160.197</ele>
        <time>2012-04-06T16:39:53.000Z</time>
      </trkpt>
      <trkpt lat="43.91522" lon="2.12682">
        <ele>159.716</ele>
        <time>2012-04-06T16:39:57.000Z</time>
      </trkpt>
      <trkpt lat="43.91528" lon="2.12694">
        <ele>159.716</ele>
        <time>2012-04-06T16:40:01.000Z</time>
      </trkpt>
      <trkpt lat="43.91536" lon="2.12701">
        <ele>160.197</ele>
        <time>2012-04-06T16:40:05.000Z</time>
      </trkpt>
      <trkpt lat="43.91543" lon="2.12705">
        <ele>160.197</ele>
        <time>2012-04-06T16:40:08.000Z</time>
      </trkpt>
      <trkpt lat="43.91554" lon="2.12709">
        <ele>160.197</ele>
        <time>2012-04-06T16:40:12.000Z</time>
      </trkpt>
      <trkpt lat="43.91565" lon="2.12716">
        <ele>159.716</ele>
        <time>2012-04-06T16:40:16.000Z</time>
      </trkpt>
      <trkpt lat="43.91574" lon="2.12723">
        <ele>159.716</ele>
        <time>2012-04-06T16:40:19.000Z</time>
      </trkpt>
      <trkpt lat="43.91582" lon="2.1273">
        <ele>159.235</ele>
        <time>2012-04-06T16:40:22.000Z</time>
      </trkpt>
      <trkpt lat="43.91592" lon="2.12737">
        <ele>159.235</ele>
        <time>2012-04-06T16:40:25.000Z</time>
      </trkpt>
      <trkpt lat="43.91602" lon="2.12744">
        <ele>159.235</ele>
        <time>2012-04-06T16:40:28.000Z</time>
      </trkpt>
      <trkpt lat="43.91603" lon="2.12763">
        <ele>158.755</ele>
        <time>2012-04-06T16:40:32.000Z</time>
      </trkpt>
      <trkpt lat="43.91597" lon="2.12776">
        <ele>158.755</ele>
        <time>2012-04-06T16:40:35.000Z</time>
      </trkpt>
      <trkpt lat="43.91595" lon="2.12785">
        <ele>158.755</ele>
        <time>2012-04-06T16:40:37.000Z</time>
      </trkpt>
      <trkpt lat="43.91588" lon="2.12803">
        <ele>159.235</ele>
        <time>2012-04-06T16:40:41.000Z</time>
      </trkpt>
      <trkpt lat="43.91585" lon="2.12812">
        <ele>159.716</ele>
        <time>2012-04-06T16:40:43.000Z</time>
      </trkpt>
      <trkpt lat="43.9158" lon="2.12833">
        <ele>159.716</ele>
        <time>2012-04-06T16:40:47.000Z</time>
      </trkpt>
      <trkpt lat="43.91577" lon="2.12848">
        <ele>159.716</ele>
        <time>2012-04-06T16:40:50.000Z</time>
      </trkpt>
      <trkpt lat="43.91579" lon="2.12876">
        <ele>161.158</ele>
        <time>2012-04-06T16:42:13.000Z</time>
      </trkpt>
      <trkpt lat="43.9158" lon="2.12892">
        <ele>161.158</ele>
        <time>2012-04-06T16:42:16.000Z</time>
      </trkpt>
      <trkpt lat="43.91581" lon="2.12907">
        <ele>161.158</ele>
        <time>2012-04-06T16:42:19.000Z</time>
      </trkpt>
      <trkpt lat="43.91581" lon="2.12916">
        <ele>161.158</ele>
        <time>2012-04-06T16:42:21.000Z</time>
      </trkpt>
      <trkpt lat="43.91583" lon="2.12934">
        <ele>161.639</ele>
        <time>2012-04-06T16:42:25.000Z</time>
      </trkpt>
      <trkpt lat="43.91583" lon="2.12947">
        <ele>162.12</ele>
        <time>2012-04-06T16:42:29.000Z</time>
      </trkpt>
      <trkpt lat="43.91574" lon="2.12953">
        <ele>162.12</ele>
        <time>2012-04-06T16:42:33.000Z</time>
      </trkpt>
      <trkpt lat="43.91563" lon="2.1296">
        <ele>162.6</ele>
        <time>2012-04-06T16:42:37.000Z</time>
      </trkpt>
      <trkpt lat="43.91554" lon="2.1296">
        <ele>162.6</ele>
        <time>2012-04-06T16:42:41.000Z</time>
      </trkpt>
      <trkpt lat="43.91545" lon="2.12958">
        <ele>162.6</ele>
        <time>2012-04-06T16:42:45.000Z</time>
      </trkpt>
      <trkpt lat="43.91549" lon="2.12964">
        <ele>162.12</ele>
        <time>2012-04-06T16:42:50.000Z</time>
      </trkpt>
      <trkpt lat="43.91559" lon="2.12962">
        <ele>162.12</ele>
        <time>2012-04-06T16:42:54.000Z</time>
      </trkpt>
      <trkpt lat="43.9157" lon="2.12956">
        <ele>162.6</ele>
        <time>2012-04-06T16:42:58.000Z</time>
      </trkpt>
      <trkpt lat="43.91579" lon="2.1295">
        <ele>162.12</ele>
        <time>2012-04-06T16:43:02.000Z</time>
      </trkpt>
      <trkpt lat="43.91587" lon="2.12958">
        <ele>162.12</ele>
        <time>2012-04-06T16:43:08.000Z</time>
      </trkpt>
      <trkpt lat="43.91591" lon="2.12973">
        <ele>161.158</ele>
        <time>2012-04-06T16:43:17.000Z</time>
      </trkpt>
      <trkpt lat="43.91597" lon="2.12985">
        <ele>161.639</ele>
        <time>2012-04-06T16:43:21.000Z</time>
      </trkpt>
      <trkpt lat="43.91606" lon="2.12987">
        <ele>161.639</ele>
        <time>2012-04-06T16:43:25.000Z</time>
      </trkpt>
      <trkpt lat="43.91613" lon="2.12986">
        <ele>161.639</ele>
        <time>2012-04-06T16:43:29.000Z</time>
      </trkpt>
    </trkseg>
  </trk>
</gpx>